createdAt,value
2018-08-06T00:00:55.710Z,83.20
2018-08-06T00:05:59.007Z,84.90
2018-08-06T00:11:02.253Z,84.90
2018-08-06T00:16:05.682Z,84.70
2018-08-06T00:21:08.961Z,84.40
2018-08-06T00:26:12.285Z,85.00
2018-08-06T00:31:15.569Z,86.20
2018-08-06T00:36:18.848Z,86.20
2018-08-06T00:41:22.307Z,86.10
2018-08-06T00:46:25.531Z,85.60
2018-08-06T00:51:28.907Z,87.20
2018-08-06T00:56:32.171Z,87.70
2018-08-06T01:01:35.430Z,87.90
2018-08-06T01:06:38.642Z,88.10
2018-08-06T01:11:41.909Z,89.10
2018-08-06T01:16:45.265Z,88.50
2018-08-06T01:21:48.486Z,88.70
2018-08-06T01:26:51.706Z,89.10
2018-08-06T01:31:54.918Z,90.00
2018-08-06T01:37:04.634Z,90.20
2018-08-06T01:42:07.879Z,90.00
2018-08-06T01:47:11.154Z,90.00
2018-08-06T01:57:17.331Z,90.50
2018-08-06T02:02:20.631Z,90.30
2018-08-06T02:07:23.841Z,90.50
2018-08-06T02:12:29.057Z,90.70
2018-08-06T02:17:32.266Z,91.00
2018-08-06T02:27:38.691Z,91.10
2018-08-06T02:32:47.355Z,91.40
2018-08-06T02:37:50.583Z,91.30
2018-08-06T02:42:53.763Z,91.40
2018-08-06T02:47:56.953Z,91.60
2018-08-06T02:53:00.177Z,91.80
2018-08-06T02:58:03.430Z,91.70
2018-08-06T03:03:06.630Z,91.90
2018-08-06T03:08:09.930Z,91.90
2018-08-06T03:13:13.122Z,92.00
2018-08-06T03:18:16.318Z,91.90
2018-08-06T03:23:19.546Z,92.10
2018-08-06T03:28:22.745Z,92.40
2018-08-06T03:33:25.953Z,92.60
2018-08-06T03:38:29.261Z,92.80
2018-08-06T03:43:32.514Z,92.70
2018-08-06T03:48:35.720Z,92.70
2018-08-06T03:53:38.980Z,92.70
2018-08-06T03:58:42.216Z,92.80
2018-08-06T04:03:45.537Z,92.90
2018-08-06T04:08:49.766Z,93.10
2018-08-06T04:13:56.355Z,93.10
2018-08-06T04:18:59.576Z,93.30
2018-08-06T04:24:02.881Z,93.30
2018-08-06T04:29:06.556Z,93.30
2018-08-06T04:34:09.837Z,93.30
2018-08-06T04:39:13.092Z,93.50
2018-08-06T04:49:19.258Z,93.40
2018-08-06T04:54:22.560Z,93.50
2018-08-06T04:59:25.786Z,93.30
2018-08-06T05:04:29.082Z,93.40
2018-08-06T05:09:43.593Z,93.70
2018-08-06T05:14:46.823Z,93.60
2018-08-06T05:19:50.080Z,93.70
2018-08-06T05:24:53.533Z,93.80
2018-08-06T05:29:56.700Z,93.70
2018-08-06T05:35:01.869Z,93.00
2018-08-06T05:40:06.023Z,93.30
2018-08-06T05:45:10.220Z,92.80
2018-08-06T05:50:14.153Z,93.40
2018-08-06T05:55:17.393Z,92.90
2018-08-06T06:00:20.593Z,93.00
2018-08-06T06:05:23.870Z,92.80
2018-08-06T06:10:27.073Z,92.40
2018-08-06T06:15:30.297Z,92.20
2018-08-06T06:20:33.519Z,91.80
2018-08-06T06:25:36.806Z,91.20
2018-08-06T06:30:40.041Z,91.30
2018-08-06T06:35:43.325Z,90.30
2018-08-06T06:40:49.023Z,89.00
2018-08-06T06:45:52.494Z,86.50
2018-08-06T06:50:55.738Z,85.80
2018-08-06T06:56:01.923Z,86.30
2018-08-06T07:01:09.294Z,86.80
2018-08-06T07:06:12.526Z,87.00
2018-08-06T07:11:15.747Z,85.70
2018-08-06T07:16:19.034Z,86.40
2018-08-06T07:21:22.544Z,88.00
2018-08-06T07:26:26.094Z,86.20
2018-08-06T07:31:31.428Z,85.10
2018-08-06T07:36:34.649Z,83.30
2018-08-06T07:41:37.889Z,83.10
2018-08-06T07:46:49.414Z,83.60
2018-08-06T07:51:52.661Z,82.80
2018-08-06T07:56:55.942Z,79.40
2018-08-06T08:01:59.206Z,78.30
2018-08-06T08:07:02.541Z,77.90
2018-08-06T08:12:05.900Z,75.50
2018-08-06T08:17:09.649Z,75.20
2018-08-06T08:22:12.979Z,74.50
2018-08-06T08:27:18.309Z,75.10
2018-08-06T08:32:21.646Z,72.80
2018-08-06T08:37:24.949Z,69.20
2018-08-06T08:42:28.278Z,66.80
2018-08-06T08:47:34.778Z,66.10
2018-08-06T08:52:38.309Z,65.10
2018-08-06T08:57:41.817Z,63.60
2018-08-06T09:02:47.701Z,63.70
2018-08-06T09:07:51.685Z,64.80
2018-08-06T09:12:55.034Z,62.40
2018-08-06T09:18:02.898Z,59.60
2018-08-06T09:23:06.110Z,61.70
2018-08-06T09:28:09.317Z,58.80
2018-08-06T09:33:12.543Z,57.60
2018-08-06T09:38:15.791Z,57.70
2018-08-06T09:43:19.029Z,56.20
2018-08-06T09:48:22.291Z,55.40
2018-08-06T09:53:25.521Z,53.60
2018-08-06T09:58:29.570Z,53.20
2018-08-06T10:03:32.778Z,53.20
2018-08-06T10:08:36.114Z,53.00
2018-08-06T10:13:39.370Z,52.80
2018-08-06T10:18:42.615Z,50.20
2018-08-06T10:23:45.789Z,49.80
2018-08-06T10:28:49.001Z,51.20
2018-08-06T10:33:52.211Z,50.90
2018-08-06T10:38:55.421Z,49.40
2018-08-06T10:43:58.633Z,48.10
2018-08-06T10:49:01.934Z,47.90
2018-08-06T10:54:05.158Z,47.70
2018-08-06T10:59:08.404Z,48.30
2018-08-06T11:04:11.678Z,47.70
2018-08-06T11:09:14.874Z,46.30
2018-08-06T11:14:18.092Z,46.80
2018-08-06T11:19:21.302Z,45.80
2018-08-06T11:24:26.525Z,45.20
2018-08-06T11:29:29.782Z,44.20
2018-08-06T11:34:33.062Z,42.90
2018-08-06T11:39:36.368Z,40.40
2018-08-06T11:44:39.726Z,41.10
2018-08-06T11:49:43.006Z,39.70
2018-08-06T11:54:46.347Z,39.00
2018-08-06T11:59:50.617Z,39.70
2018-08-06T12:04:53.885Z,40.20
2018-08-06T12:09:57.415Z,39.80
2018-08-06T12:15:00.672Z,39.10
2018-08-06T12:20:08.101Z,40.20
2018-08-06T12:25:12.378Z,39.00
2018-08-06T12:30:21.931Z,39.20
2018-08-06T12:35:25.243Z,38.20
2018-08-06T12:40:28.500Z,38.10
2018-08-06T12:45:31.693Z,37.20
2018-08-06T12:50:34.940Z,37.60
2018-08-06T12:55:38.257Z,37.10
2018-08-06T13:00:42.489Z,36.90
2018-08-06T13:05:45.704Z,37.30
2018-08-06T13:10:49.006Z,35.40
2018-08-06T13:15:52.398Z,34.20
2018-08-06T13:20:55.593Z,33.70
2018-08-06T13:25:58.802Z,33.00
2018-08-06T13:36:05.062Z,32.80
2018-08-06T13:41:08.525Z,34.40
2018-08-06T13:46:11.758Z,33.70
2018-08-06T13:51:14.985Z,33.60
2018-08-06T13:56:18.198Z,32.90
2018-08-06T14:01:21.498Z,33.90
2018-08-06T14:06:24.691Z,32.50
2018-08-06T14:11:27.931Z,32.50
2018-08-06T14:16:31.183Z,32.40
2018-08-06T14:21:34.565Z,30.80
2018-08-06T14:26:37.775Z,31.30
2018-08-06T14:31:40.980Z,29.70
2018-08-06T14:36:44.158Z,29.20
2018-08-06T14:41:47.390Z,29.00
2018-08-06T14:46:50.574Z,29.00
2018-08-06T14:51:54.291Z,29.20
2018-08-06T14:56:57.498Z,30.10
2018-08-06T15:02:01.962Z,29.40
2018-08-06T15:07:05.254Z,30.60
2018-08-06T15:12:08.484Z,31.70
2018-08-06T15:17:11.747Z,30.30
2018-08-06T15:22:14.917Z,30.80
2018-08-06T15:27:18.141Z,31.60
2018-08-06T15:32:21.473Z,31.80
2018-08-06T15:37:24.729Z,31.20
2018-08-06T15:42:28.141Z,31.60
2018-08-06T15:47:31.418Z,32.50
2018-08-06T15:52:34.614Z,32.70
2018-08-06T15:57:37.845Z,32.40
2018-08-06T16:02:41.109Z,32.30
2018-08-06T16:07:44.382Z,33.50
2018-08-06T16:12:47.646Z,33.10
2018-08-06T16:17:50.893Z,32.70
2018-08-06T16:22:54.089Z,33.20
2018-08-06T16:27:57.338Z,33.80
2018-08-06T16:33:00.549Z,33.50
2018-08-06T16:38:03.798Z,33.70
2018-08-06T16:43:07.034Z,34.10
2018-08-06T16:48:10.252Z,33.80
2018-08-06T16:53:13.433Z,33.20
2018-08-06T16:58:16.652Z,34.40
2018-08-06T17:03:19.933Z,33.80
2018-08-06T17:08:23.226Z,34.00
2018-08-06T17:13:26.453Z,34.50
2018-08-06T17:18:29.678Z,34.80
2018-08-06T17:23:33.181Z,34.00
2018-08-06T17:28:36.532Z,35.30
2018-08-06T17:33:39.955Z,34.30
2018-08-06T17:38:43.181Z,35.10
2018-08-06T17:43:46.401Z,34.70
2018-08-06T17:48:49.952Z,37.50
2018-08-06T17:53:53.149Z,37.10
2018-08-06T17:58:56.486Z,37.10
2018-08-06T18:03:59.702Z,35.60
2018-08-06T18:09:06.646Z,35.50
2018-08-06T18:14:10.455Z,36.50
2018-08-06T18:19:13.708Z,38.10
2018-08-06T18:24:16.917Z,39.40
2018-08-06T18:29:20.134Z,39.90
2018-08-06T18:34:23.403Z,41.00
2018-08-06T18:39:26.637Z,41.20
2018-08-06T18:44:29.901Z,42.20
2018-08-06T18:49:33.286Z,42.00
2018-08-06T18:54:36.906Z,42.30
2018-08-06T18:59:40.304Z,43.90
2018-08-06T19:04:43.534Z,43.90
2018-08-06T19:09:47.024Z,48.20
2018-08-06T19:14:50.266Z,48.50
2018-08-06T19:19:53.632Z,49.30
2018-08-06T19:25:02.206Z,48.70
2018-08-06T19:30:06.214Z,51.10
2018-08-06T19:35:09.566Z,50.90
2018-08-06T19:40:12.926Z,53.30
2018-08-06T19:45:16.203Z,53.50
2018-08-06T19:50:24.936Z,55.80
2018-08-06T19:55:33.382Z,53.80
2018-08-06T20:00:36.709Z,57.40
2018-08-06T20:05:39.956Z,58.10
2018-08-06T20:10:43.178Z,59.20
2018-08-06T20:15:47.421Z,58.20
2018-08-06T20:20:50.914Z,58.10
2018-08-06T20:25:54.138Z,58.70
2018-08-06T20:30:57.374Z,60.80
2018-08-06T20:36:00.814Z,62.20
2018-08-06T20:41:04.038Z,61.10
2018-08-06T20:51:10.383Z,61.40
2018-08-06T20:56:13.612Z,63.90
2018-08-06T21:01:17.874Z,63.00
2018-08-06T21:06:21.137Z,64.00
2018-08-06T21:11:24.393Z,67.90
2018-08-06T21:16:28.092Z,64.80
2018-08-06T21:21:31.360Z,67.40
2018-08-06T21:26:34.594Z,69.40
2018-08-06T21:31:37.866Z,68.10
2018-08-06T21:36:41.099Z,66.30
2018-08-06T21:41:44.390Z,70.30
2018-08-06T21:46:47.626Z,69.00
2018-08-06T21:51:50.833Z,69.90
2018-08-06T21:56:54.042Z,69.60
2018-08-06T22:01:59.306Z,67.30
2018-08-06T22:07:03.315Z,66.50
2018-08-06T22:12:12.994Z,67.90
2018-08-06T22:17:16.283Z,66.70
2018-08-06T22:22:19.517Z,70.20
2018-08-06T22:27:22.787Z,64.10
2018-08-06T22:32:26.140Z,60.30
2018-08-06T22:37:29.371Z,60.80
2018-08-06T22:42:32.583Z,68.10
2018-08-06T22:47:35.906Z,65.90
2018-08-06T22:52:39.569Z,68.30
2018-08-06T22:57:43.278Z,67.20
2018-08-06T23:02:46.490Z,66.50
2018-08-06T23:07:49.741Z,69.20
2018-08-06T23:12:52.996Z,66.50
2018-08-06T23:17:56.347Z,66.30
2018-08-06T23:22:59.558Z,71.20
2018-08-06T23:28:02.830Z,71.90
2018-08-06T23:33:06.365Z,71.40
2018-08-06T23:38:09.670Z,70.10
2018-08-06T23:43:13.943Z,71.90
